sensor_id;sensor_type;location;lat;lon;timestamp;P1;durP1;ratioP1;P2;durP2;ratioP2
795;SDS011;381;48.770;9.188;2023-03-05T00:02:14;26.17;;;20.40;;
795;SDS011;381;48.770;9.188;2023-03-05T00:07:16;25.87;;;19.13;;
795;SDS011;381;48.770;9.188;2023-03-05T00:12:18;22.97;;;19.17;;
795;SDS011;381;48.770;9.188;2023-03-05T00:17:21;22.07;;;18.03;;
795;SDS011;381;48.770;9.188;2023-03-05T00:22:24;24.60;;;19.47;;
795;SDS011;381;48.770;9.188;2023-03-05T00:27:26;25.50;;;20.43;;
795;SDS011;381;48.770;9.188;2023-03-05T00:32:29;24.30;;;20.07;;
795;SDS011;381;48.770;9.188;2023-03-05T00:37:31;22.13;;;19.30;;
795;SDS011;381;48.770;9.188;2023-03-05T00:42:33;27.33;;;18.67;;
795;SDS011;381;48.770;9.188;2023-03-05T00:47:39;23.90;;;19.40;;
795;SDS011;381;48.770;9.188;2023-03-05T00:52:41;23.23;;;18.23;;
795;SDS011;381;48.770;9.188;2023-03-05T00:57:43;25.10;;;17.93;;
795;SDS011;381;48.770;9.188;2023-03-05T01:02:47;29.93;;;19.00;;
795;SDS011;381;48.770;9.188;2023-03-05T01:07:50;22.70;;;17.67;;
795;SDS011;381;48.770;9.188;2023-03-05T01:12:53;23.00;;;17.77;;
795;SDS011;381;48.770;9.188;2023-03-05T01:17:56;21.23;;;17.33;;
795;SDS011;381;48.770;9.188;2023-03-05T01:22:58;24.00;;;19.30;;
795;SDS011;381;48.770;9.188;2023-03-05T01:28:01;21.37;;;17.37;;
795;SDS011;381;48.770;9.188;2023-03-05T01:33:04;26.00;;;17.70;;
795;SDS011;381;48.770;9.188;2023-03-05T01:38:06;20.67;;;16.47;;
795;SDS011;381;48.770;9.188;2023-03-05T01:43:18;24.50;;;17.17;;
795;SDS011;381;48.770;9.188;2023-03-05T01:48:24;26.87;;;18.00;;
795;SDS011;381;48.770;9.188;2023-03-05T01:53:27;19.73;;;17.10;;
795;SDS011;381;48.770;9.188;2023-03-05T01:58:30;28.73;;;19.20;;
795;SDS011;381;48.770;9.188;2023-03-05T02:03:34;23.90;;;18.13;;
795;SDS011;381;48.770;9.188;2023-03-05T02:08:37;25.37;;;19.37;;
795;SDS011;381;48.770;9.188;2023-03-05T02:13:39;27.33;;;19.67;;
795;SDS011;381;48.770;9.188;2023-03-05T02:18:43;23.27;;;17.70;;
795;SDS011;381;48.770;9.188;2023-03-05T02:23:46;25.07;;;17.77;;
795;SDS011;381;48.770;9.188;2023-03-05T02:28:49;28.03;;;18.13;;
795;SDS011;381;48.770;9.188;2023-03-05T02:33:54;24.10;;;18.37;;
795;SDS011;381;48.770;9.188;2023-03-05T02:38:58;24.23;;;16.87;;
795;SDS011;381;48.770;9.188;2023-03-05T02:44:01;24.40;;;18.33;;
795;SDS011;381;48.770;9.188;2023-03-05T02:49:03;21.93;;;16.73;;
795;SDS011;381;48.770;9.188;2023-03-05T02:54:07;23.40;;;17.03;;
795;SDS011;381;48.770;9.188;2023-03-05T02:59:11;22.07;;;17.17;;
795;SDS011;381;48.770;9.188;2023-03-05T03:04:13;26.10;;;16.93;;
795;SDS011;381;48.770;9.188;2023-03-05T03:09:16;22.07;;;16.60;;
795;SDS011;381;48.770;9.188;2023-03-05T03:14:19;23.20;;;17.10;;
795;SDS011;381;48.770;9.188;2023-03-05T03:19:21;21.47;;;16.50;;
795;SDS011;381;48.770;9.188;2023-03-05T03:24:24;19.80;;;15.33;;
795;SDS011;381;48.770;9.188;2023-03-05T03:29:27;19.20;;;14.60;;
795;SDS011;381;48.770;9.188;2023-03-05T03:34:29;22.43;;;15.30;;
795;SDS011;381;48.770;9.188;2023-03-05T03:39:33;22.00;;;16.20;;
795;SDS011;381;48.770;9.188;2023-03-05T03:44:35;21.60;;;15.77;;
795;SDS011;381;48.770;9.188;2023-03-05T03:49:37;19.33;;;15.43;;
795;SDS011;381;48.770;9.188;2023-03-05T03:54:40;21.50;;;16.07;;
795;SDS011;381;48.770;9.188;2023-03-05T03:59:42;24.43;;;16.20;;
795;SDS011;381;48.770;9.188;2023-03-05T04:04:45;19.50;;;15.17;;
795;SDS011;381;48.770;9.188;2023-03-05T04:09:48;24.73;;;15.47;;
795;SDS011;381;48.770;9.188;2023-03-05T04:14:51;30.40;;;16.20;;
795;SDS011;381;48.770;9.188;2023-03-05T04:19:53;21.40;;;15.90;;
795;SDS011;381;48.770;9.188;2023-03-05T04:24:56;20.03;;;14.23;;
795;SDS011;381;48.770;9.188;2023-03-05T04:29:58;17.60;;;14.60;;
795;SDS011;381;48.770;9.188;2023-03-05T04:35:07;19.97;;;15.20;;
795;SDS011;381;48.770;9.188;2023-03-05T04:40:12;21.57;;;15.67;;
795;SDS011;381;48.770;9.188;2023-03-05T04:45:14;20.60;;;14.63;;
795;SDS011;381;48.770;9.188;2023-03-05T04:50:16;20.97;;;16.20;;
795;SDS011;381;48.770;9.188;2023-03-05T04:55:20;20.57;;;15.30;;
795;SDS011;381;48.770;9.188;2023-03-05T05:00:24;19.10;;;14.93;;
795;SDS011;381;48.770;9.188;2023-03-05T05:05:27;22.23;;;16.30;;
795;SDS011;381;48.770;9.188;2023-03-05T05:10:31;19.47;;;15.23;;
795;SDS011;381;48.770;9.188;2023-03-05T05:15:33;23.30;;;15.70;;
795;SDS011;381;48.770;9.188;2023-03-05T05:20:35;23.97;;;16.57;;
795;SDS011;381;48.770;9.188;2023-03-05T05:25:40;19.33;;;14.50;;
795;SDS011;381;48.770;9.188;2023-03-05T05:30:45;18.17;;;15.20;;
795;SDS011;381;48.770;9.188;2023-03-05T05:35:53;21.87;;;15.77;;
795;SDS011;381;48.770;9.188;2023-03-05T05:41:01;22.33;;;16.90;;
795;SDS011;381;48.770;9.188;2023-03-05T05:46:05;21.53;;;16.37;;
795;SDS011;381;48.770;9.188;2023-03-05T05:51:10;25.73;;;17.90;;
795;SDS011;381;48.770;9.188;2023-03-05T05:56:15;22.30;;;16.23;;
795;SDS011;381;48.770;9.188;2023-03-05T06:01:19;22.07;;;17.73;;
795;SDS011;381;48.770;9.188;2023-03-05T06:06:23;22.20;;;17.07;;
795;SDS011;381;48.770;9.188;2023-03-05T06:11:28;23.23;;;16.87;;
795;SDS011;381;48.770;9.188;2023-03-05T06:16:30;23.30;;;18.00;;
795;SDS011;381;48.770;9.188;2023-03-05T06:21:32;30.00;;;19.50;;
795;SDS011;381;48.770;9.188;2023-03-05T06:26:35;22.00;;;17.63;;
795;SDS011;381;48.770;9.188;2023-03-05T06:31:38;22.97;;;17.73;;
795;SDS011;381;48.770;9.188;2023-03-05T06:36:41;22.33;;;17.93;;
795;SDS011;381;48.770;9.188;2023-03-05T06:41:44;22.60;;;18.27;;
795;SDS011;381;48.770;9.188;2023-03-05T06:46:47;24.97;;;19.03;;
795;SDS011;381;48.770;9.188;2023-03-05T06:51:49;21.23;;;17.87;;
795;SDS011;381;48.770;9.188;2023-03-05T06:56:52;25.10;;;18.53;;
795;SDS011;381;48.770;9.188;2023-03-05T07:01:54;20.70;;;17.00;;
795;SDS011;381;48.770;9.188;2023-03-05T07:06:56;19.53;;;17.10;;
795;SDS011;381;48.770;9.188;2023-03-05T07:12:01;20.50;;;18.03;;
795;SDS011;381;48.770;9.188;2023-03-05T07:17:03;26.67;;;18.67;;
795;SDS011;381;48.770;9.188;2023-03-05T07:22:05;23.93;;;17.57;;
795;SDS011;381;48.770;9.188;2023-03-05T07:27:09;23.33;;;19.00;;
795;SDS011;381;48.770;9.188;2023-03-05T07:32:11;25.20;;;18.33;;
795;SDS011;381;48.770;9.188;2023-03-05T07:37:13;23.23;;;18.00;;
795;SDS011;381;48.770;9.188;2023-03-05T07:42:16;20.60;;;17.50;;
795;SDS011;381;48.770;9.188;2023-03-05T07:47:31;19.27;;;16.50;;
795;SDS011;381;48.770;9.188;2023-03-05T07:52:33;23.70;;;18.30;;
795;SDS011;381;48.770;9.188;2023-03-05T07:57:36;24.27;;;16.70;;
795;SDS011;381;48.770;9.188;2023-03-05T08:02:38;26.43;;;17.80;;
795;SDS011;381;48.770;9.188;2023-03-05T08:07:43;22.33;;;16.73;;
795;SDS011;381;48.770;9.188;2023-03-05T08:12:47;20.70;;;16.77;;
795;SDS011;381;48.770;9.188;2023-03-05T08:17:49;23.37;;;17.97;;
795;SDS011;381;48.770;9.188;2023-03-05T08:22:51;23.73;;;17.90;;
795;SDS011;381;48.770;9.188;2023-03-05T08:27:54;22.27;;;16.73;;
795;SDS011;381;48.770;9.188;2023-03-05T08:32:57;24.63;;;17.20;;
795;SDS011;381;48.770;9.188;2023-03-05T08:37:59;20.97;;;16.00;;
795;SDS011;381;48.770;9.188;2023-03-05T08:43:03;19.20;;;16.33;;
795;SDS011;381;48.770;9.188;2023-03-05T08:48:06;19.40;;;16.33;;
795;SDS011;381;48.770;9.188;2023-03-05T08:53:08;19.53;;;16.27;;
795;SDS011;381;48.770;9.188;2023-03-05T08:58:11;23.80;;;17.50;;
795;SDS011;381;48.770;9.188;2023-03-05T09:03:14;20.87;;;16.53;;
795;SDS011;381;48.770;9.188;2023-03-05T09:08:16;21.37;;;17.27;;
795;SDS011;381;48.770;9.188;2023-03-05T09:13:20;21.67;;;17.23;;
795;SDS011;381;48.770;9.188;2023-03-05T09:18:22;24.30;;;18.20;;
795;SDS011;381;48.770;9.188;2023-03-05T09:23:24;20.67;;;17.33;;
795;SDS011;381;48.770;9.188;2023-03-05T09:28:28;23.27;;;17.80;;
795;SDS011;381;48.770;9.188;2023-03-05T09:33:30;25.03;;;18.20;;
795;SDS011;381;48.770;9.188;2023-03-05T09:38:32;19.80;;;16.37;;
795;SDS011;381;48.770;9.188;2023-03-05T09:43:43;21.97;;;17.13;;
795;SDS011;381;48.770;9.188;2023-03-05T09:48:50;21.90;;;17.43;;
795;SDS011;381;48.770;9.188;2023-03-05T09:53:59;21.60;;;17.70;;
795;SDS011;381;48.770;9.188;2023-03-05T09:59:10;24.00;;;18.60;;
795;SDS011;381;48.770;9.188;2023-03-05T10:04:21;26.83;;;18.30;;
795;SDS011;381;48.770;9.188;2023-03-05T10:09:40;20.03;;;17.43;;
795;SDS011;381;48.770;9.188;2023-03-05T10:14:46;22.20;;;19.13;;
795;SDS011;381;48.770;9.188;2023-03-05T10:19:56;24.23;;;18.87;;
795;SDS011;381;48.770;9.188;2023-03-05T10:25:23;22.60;;;18.33;;
795;SDS011;381;48.770;9.188;2023-03-05T10:30:42;21.23;;;18.93;;
795;SDS011;381;48.770;9.188;2023-03-05T10:36:24;22.77;;;19.43;;
795;SDS011;381;48.770;9.188;2023-03-05T10:41:34;24.37;;;19.60;;
795;SDS011;381;48.770;9.188;2023-03-05T10:46:42;20.60;;;18.40;;
795;SDS011;381;48.770;9.188;2023-03-05T10:51:47;20.70;;;18.33;;
795;SDS011;381;48.770;9.188;2023-03-05T10:57:01;22.13;;;18.03;;
795;SDS011;381;48.770;9.188;2023-03-05T11:02:07;21.87;;;19.20;;
795;SDS011;381;48.770;9.188;2023-03-05T11:12:30;25.37;;;18.73;;
795;SDS011;381;48.770;9.188;2023-03-05T11:17:35;25.70;;;19.30;;
795;SDS011;381;48.770;9.188;2023-03-05T11:22:39;24.83;;;18.63;;
795;SDS011;381;48.770;9.188;2023-03-05T11:27:43;26.90;;;19.00;;
795;SDS011;381;48.770;9.188;2023-03-05T11:32:54;26.73;;;19.50;;
795;SDS011;381;48.770;9.188;2023-03-05T11:38:14;25.23;;;19.60;;
795;SDS011;381;48.770;9.188;2023-03-05T11:43:18;25.53;;;19.90;;
795;SDS011;381;48.770;9.188;2023-03-05T11:48:25;22.23;;;18.50;;
795;SDS011;381;48.770;9.188;2023-03-05T11:53:30;20.50;;;17.10;;
795;SDS011;381;48.770;9.188;2023-03-05T11:58:37;20.03;;;17.40;;
795;SDS011;381;48.770;9.188;2023-03-05T12:03:45;21.63;;;18.17;;
795;SDS011;381;48.770;9.188;2023-03-05T12:08:48;25.10;;;19.50;;
795;SDS011;381;48.770;9.188;2023-03-05T12:13:53;22.73;;;19.03;;
795;SDS011;381;48.770;9.188;2023-03-05T12:19:02;25.00;;;19.83;;
795;SDS011;381;48.770;9.188;2023-03-05T12:24:35;21.63;;;16.90;;
795;SDS011;381;48.770;9.188;2023-03-05T12:29:43;22.13;;;17.50;;
795;SDS011;381;48.770;9.188;2023-03-05T12:34:49;16.50;;;14.60;;
795;SDS011;381;48.770;9.188;2023-03-05T12:39:57;22.17;;;15.10;;
795;SDS011;381;48.770;9.188;2023-03-05T12:50:47;19.77;;;16.43;;
795;SDS011;381;48.770;9.188;2023-03-05T12:55:56;18.83;;;15.37;;
795;SDS011;381;48.770;9.188;2023-03-05T13:01:05;24.90;;;16.70;;
795;SDS011;381;48.770;9.188;2023-03-05T13:06:26;19.13;;;16.50;;
795;SDS011;381;48.770;9.188;2023-03-05T13:11:30;23.83;;;17.17;;
795;SDS011;381;48.770;9.188;2023-03-05T13:16:35;20.37;;;17.53;;
795;SDS011;381;48.770;9.188;2023-03-05T13:21:40;20.60;;;17.40;;
795;SDS011;381;48.770;9.188;2023-03-05T13:26:42;24.83;;;17.07;;
795;SDS011;381;48.770;9.188;2023-03-05T13:31:45;23.23;;;17.47;;
795;SDS011;381;48.770;9.188;2023-03-05T13:36:52;22.53;;;14.53;;
795;SDS011;381;48.770;9.188;2023-03-05T13:41:58;20.80;;;16.20;;
795;SDS011;381;48.770;9.188;2023-03-05T13:47:05;20.57;;;15.60;;
795;SDS011;381;48.770;9.188;2023-03-05T13:52:23;17.60;;;14.97;;
795;SDS011;381;48.770;9.188;2023-03-05T13:57:34;19.00;;;15.00;;
795;SDS011;381;48.770;9.188;2023-03-05T14:02:40;18.23;;;15.33;;
795;SDS011;381;48.770;9.188;2023-03-05T14:07:45;19.13;;;14.53;;
795;SDS011;381;48.770;9.188;2023-03-05T14:12:49;17.47;;;14.13;;
795;SDS011;381;48.770;9.188;2023-03-05T14:17:52;18.70;;;14.77;;
795;SDS011;381;48.770;9.188;2023-03-05T14:23:29;19.60;;;16.47;;
795;SDS011;381;48.770;9.188;2023-03-05T14:28:35;23.03;;;17.90;;
795;SDS011;381;48.770;9.188;2023-03-05T14:33:38;21.10;;;16.23;;
795;SDS011;381;48.770;9.188;2023-03-05T14:38:42;18.73;;;15.13;;
795;SDS011;381;48.770;9.188;2023-03-05T14:43:44;21.50;;;16.20;;
795;SDS011;381;48.770;9.188;2023-03-05T14:48:46;19.10;;;15.50;;
795;SDS011;381;48.770;9.188;2023-03-05T14:53:50;23.53;;;15.20;;
795;SDS011;381;48.770;9.188;2023-03-05T14:58:52;18.57;;;15.27;;
795;SDS011;381;48.770;9.188;2023-03-05T15:03:58;17.90;;;15.03;;
795;SDS011;381;48.770;9.188;2023-03-05T15:09:03;21.37;;;15.27;;
795;SDS011;381;48.770;9.188;2023-03-05T15:14:06;22.13;;;16.40;;
795;SDS011;381;48.770;9.188;2023-03-05T15:19:09;23.50;;;18.60;;
795;SDS011;381;48.770;9.188;2023-03-05T15:24:13;22.17;;;17.33;;
795;SDS011;381;48.770;9.188;2023-03-05T15:29:15;23.60;;;18.90;;
795;SDS011;381;48.770;9.188;2023-03-05T15:34:17;26.43;;;18.57;;
795;SDS011;381;48.770;9.188;2023-03-05T15:39:21;25.90;;;20.37;;
795;SDS011;381;48.770;9.188;2023-03-05T15:44:26;24.60;;;19.07;;
795;SDS011;381;48.770;9.188;2023-03-05T15:49:28;26.50;;;18.77;;
795;SDS011;381;48.770;9.188;2023-03-05T15:54:31;25.43;;;18.33;;
795;SDS011;381;48.770;9.188;2023-03-05T15:59:35;24.03;;;17.50;;
795;SDS011;381;48.770;9.188;2023-03-05T16:04:37;23.20;;;17.33;;
795;SDS011;381;48.770;9.188;2023-03-05T16:09:42;22.30;;;17.40;;
795;SDS011;381;48.770;9.188;2023-03-05T16:14:47;22.83;;;16.50;;
795;SDS011;381;48.770;9.188;2023-03-05T16:19:52;21.20;;;15.47;;
795;SDS011;381;48.770;9.188;2023-03-05T16:24:57;20.30;;;14.33;;
795;SDS011;381;48.770;9.188;2023-03-05T16:30:00;18.93;;;14.40;;
795;SDS011;381;48.770;9.188;2023-03-05T16:35:05;15.07;;;13.00;;
795;SDS011;381;48.770;9.188;2023-03-05T16:40:10;16.13;;;12.73;;
795;SDS011;381;48.770;9.188;2023-03-05T16:45:16;16.90;;;13.23;;
795;SDS011;381;48.770;9.188;2023-03-05T16:50:19;22.93;;;16.27;;
795;SDS011;381;48.770;9.188;2023-03-05T16:55:22;16.03;;;13.30;;
795;SDS011;381;48.770;9.188;2023-03-05T17:00:27;12.33;;;11.00;;
795;SDS011;381;48.770;9.188;2023-03-05T17:05:29;14.77;;;12.20;;
795;SDS011;381;48.770;9.188;2023-03-05T17:10:53;13.80;;;11.50;;
795;SDS011;381;48.770;9.188;2023-03-05T17:16:01;15.47;;;12.20;;
795;SDS011;381;48.770;9.188;2023-03-05T17:21:25;15.17;;;12.10;;
795;SDS011;381;48.770;9.188;2023-03-05T17:26:30;13.37;;;11.77;;
795;SDS011;381;48.770;9.188;2023-03-05T17:31:35;17.93;;;13.70;;
795;SDS011;381;48.770;9.188;2023-03-05T17:36:46;17.17;;;13.07;;
795;SDS011;381;48.770;9.188;2023-03-05T17:47:38;17.27;;;14.27;;
795;SDS011;381;48.770;9.188;2023-03-05T17:52:40;19.23;;;14.90;;
795;SDS011;381;48.770;9.188;2023-03-05T17:58:32;19.40;;;14.90;;
795;SDS011;381;48.770;9.188;2023-03-05T18:03:39;18.87;;;14.07;;
795;SDS011;381;48.770;9.188;2023-03-05T18:08:45;20.30;;;16.70;;
795;SDS011;381;48.770;9.188;2023-03-05T18:13:47;21.70;;;17.23;;
795;SDS011;381;48.770;9.188;2023-03-05T18:18:51;19.93;;;15.87;;
795;SDS011;381;48.770;9.188;2023-03-05T18:23:54;19.70;;;13.50;;
795;SDS011;381;48.770;9.188;2023-03-05T18:28:56;19.73;;;17.00;;
795;SDS011;381;48.770;9.188;2023-03-05T18:34:00;23.77;;;19.07;;
795;SDS011;381;48.770;9.188;2023-03-05T18:39:02;22.60;;;18.33;;
795;SDS011;381;48.770;9.188;2023-03-05T18:44:04;22.47;;;17.93;;
795;SDS011;381;48.770;9.188;2023-03-05T18:49:09;24.90;;;20.00;;
795;SDS011;381;48.770;9.188;2023-03-05T18:54:11;26.20;;;20.60;;
795;SDS011;381;48.770;9.188;2023-03-05T18:59:13;22.47;;;19.40;;
795;SDS011;381;48.770;9.188;2023-03-05T19:04:16;24.13;;;18.60;;
795;SDS011;381;48.770;9.188;2023-03-05T19:09:18;24.63;;;21.20;;
795;SDS011;381;48.770;9.188;2023-03-05T19:14:38;28.03;;;19.57;;
795;SDS011;381;48.770;9.188;2023-03-05T19:19:41;30.50;;;24.80;;
795;SDS011;381;48.770;9.188;2023-03-05T19:24:43;30.13;;;21.77;;
795;SDS011;381;48.770;9.188;2023-03-05T19:29:46;27.20;;;20.30;;
795;SDS011;381;48.770;9.188;2023-03-05T19:34:49;23.20;;;19.30;;
795;SDS011;381;48.770;9.188;2023-03-05T19:39:55;27.83;;;21.83;;
795;SDS011;381;48.770;9.188;2023-03-05T19:44:58;25.37;;;20.77;;
795;SDS011;381;48.770;9.188;2023-03-05T19:50:02;24.67;;;21.03;;
795;SDS011;381;48.770;9.188;2023-03-05T19:55:05;28.60;;;22.90;;
795;SDS011;381;48.770;9.188;2023-03-05T20:00:08;27.67;;;20.57;;
795;SDS011;381;48.770;9.188;2023-03-05T20:05:13;26.37;;;21.73;;
795;SDS011;381;48.770;9.188;2023-03-05T20:10:15;25.03;;;21.40;;
795;SDS011;381;48.770;9.188;2023-03-05T20:15:18;37.87;;;27.67;;
795;SDS011;381;48.770;9.188;2023-03-05T20:20:24;25.10;;;21.20;;
795;SDS011;381;48.770;9.188;2023-03-05T20:25:26;23.67;;;17.60;;
795;SDS011;381;48.770;9.188;2023-03-05T20:30:28;27.47;;;20.87;;
795;SDS011;381;48.770;9.188;2023-03-05T20:35:32;25.60;;;19.97;;
795;SDS011;381;48.770;9.188;2023-03-05T20:40:34;25.80;;;20.77;;
795;SDS011;381;48.770;9.188;2023-03-05T20:45:36;26.10;;;20.57;;
795;SDS011;381;48.770;9.188;2023-03-05T20:50:39;27.73;;;20.40;;
795;SDS011;381;48.770;9.188;2023-03-05T20:55:42;31.67;;;22.60;;
795;SDS011;381;48.770;9.188;2023-03-05T21:00:44;25.50;;;21.00;;
795;SDS011;381;48.770;9.188;2023-03-05T21:05:47;25.73;;;20.63;;
795;SDS011;381;48.770;9.188;2023-03-05T21:10:50;22.00;;;18.50;;
795;SDS011;381;48.770;9.188;2023-03-05T21:15:52;24.63;;;18.87;;
795;SDS011;381;48.770;9.188;2023-03-05T21:20:55;21.30;;;18.10;;
795;SDS011;381;48.770;9.188;2023-03-05T21:25:57;21.37;;;16.17;;
795;SDS011;381;48.770;9.188;2023-03-05T21:31:04;17.93;;;15.47;;
795;SDS011;381;48.770;9.188;2023-03-05T21:36:09;17.97;;;16.03;;
795;SDS011;381;48.770;9.188;2023-03-05T21:41:11;21.27;;;15.90;;
795;SDS011;381;48.770;9.188;2023-03-05T21:46:13;21.37;;;15.73;;
795;SDS011;381;48.770;9.188;2023-03-05T21:51:18;19.73;;;14.73;;
795;SDS011;381;48.770;9.188;2023-03-05T21:56:26;18.53;;;15.10;;
795;SDS011;381;48.770;9.188;2023-03-05T22:01:30;18.50;;;15.97;;
795;SDS011;381;48.770;9.188;2023-03-05T22:06:33;20.93;;;16.53;;
795;SDS011;381;48.770;9.188;2023-03-05T22:11:35;20.83;;;18.40;;
795;SDS011;381;48.770;9.188;2023-03-05T22:16:40;22.43;;;17.20;;
795;SDS011;381;48.770;9.188;2023-03-05T22:21:43;22.20;;;17.60;;
795;SDS011;381;48.770;9.188;2023-03-05T22:26:46;19.40;;;17.10;;
795;SDS011;381;48.770;9.188;2023-03-05T22:31:48;20.77;;;18.07;;
795;SDS011;381;48.770;9.188;2023-03-05T22:36:51;20.77;;;16.33;;
795;SDS011;381;48.770;9.188;2023-03-05T22:41:53;23.03;;;17.20;;
795;SDS011;381;48.770;9.188;2023-03-05T22:46:55;22.17;;;17.17;;
795;SDS011;381;48.770;9.188;2023-03-05T22:51:58;25.00;;;17.70;;
795;SDS011;381;48.770;9.188;2023-03-05T22:57:01;18.67;;;16.07;;
795;SDS011;381;48.770;9.188;2023-03-05T23:02:21;22.07;;;15.97;;
795;SDS011;381;48.770;9.188;2023-03-05T23:07:25;20.80;;;16.27;;
795;SDS011;381;48.770;9.188;2023-03-05T23:12:29;20.77;;;17.03;;
795;SDS011;381;48.770;9.188;2023-03-05T23:17:32;20.77;;;16.63;;
795;SDS011;381;48.770;9.188;2023-03-05T23:22:36;21.00;;;17.20;;
795;SDS011;381;48.770;9.188;2023-03-05T23:27:39;18.73;;;16.70;;
795;SDS011;381;48.770;9.188;2023-03-05T23:32:43;18.57;;;16.67;;
795;SDS011;381;48.770;9.188;2023-03-05T23:37:47;20.20;;;16.90;;
795;SDS011;381;48.770;9.188;2023-03-05T23:42:49;17.43;;;15.57;;
795;SDS011;381;48.770;9.188;2023-03-05T23:47:52;23.83;;;16.93;;
795;SDS011;381;48.770;9.188;2023-03-05T23:52:55;23.00;;;18.00;;
795;SDS011;381;48.770;9.188;2023-03-05T23:58:00;19.10;;;16.27;;
